Perry, Florida
Current Conditions -  °F | °C
As of 11:55 PM on Saturday 22 Nov 2014 (Local Time) from K40J Reporting Station
Drizzle Drizzle  
Wind Chill: 65°   Ceiling: 4600
Heat Index: 65°   Visibility: 7mi
Dew Point: 64°   Wind: 10mph
Humidity: 97%   Direction: 110°ESE
Pressure: 30.07"   Gusts: NA
Location:  30.12°N, 83.58°W
Report Text: K40J 230455Z AUTO 11009KT 7SM -DZ SCT006 SCT028 OVC046 18/18 A3007 RMK AO2 P0001 T01830178
Loading
Personal Weather Stations






























Interactive Weather Map New forecast layout! Learn more

10-Day Weather Forecast

Advertisements
Track Severe Weather on mobile